createdAt,value
2019-03-26T00:00:54.847Z,1017.1
2019-03-26T00:01:57.220Z,1017.1
2019-03-26T00:02:59.355Z,1017
2019-03-26T00:04:06.442Z,1017.1
2019-03-26T00:05:08.578Z,1017.1
2019-03-26T00:06:10.672Z,1017
2019-03-26T00:07:12.707Z,1017
2019-03-26T00:08:14.746Z,1017
2019-03-26T00:09:17.204Z,1017.1
2019-03-26T00:10:19.597Z,1017.1
2019-03-26T00:11:21.629Z,1017
2019-03-26T00:12:23.647Z,1017
2019-03-26T00:13:25.707Z,1017.1
2019-03-26T00:14:28.043Z,1017.1
2019-03-26T00:15:30.442Z,1017.1
2019-03-26T00:16:32.549Z,1017.1
2019-03-26T00:17:35.153Z,1017.1
2019-03-26T00:18:37.188Z,1017.1
2019-03-26T00:19:39.212Z,1017
2019-03-26T00:20:41.721Z,1017.1
2019-03-26T00:21:43.774Z,1017.1
2019-03-26T00:22:45.850Z,1017.1
2019-03-26T00:23:47.879Z,1017.2
2019-03-26T00:24:49.891Z,1017.1
2019-03-26T00:25:51.938Z,1017.1
2019-03-26T00:26:53.940Z,1017.1
2019-03-26T00:27:55.964Z,1017.1
2019-03-26T00:28:57.984Z,1017.1
2019-03-26T00:30:00.334Z,1017.2
2019-03-26T00:31:02.587Z,1017.2
2019-03-26T00:32:05.041Z,1017.2
2019-03-26T00:33:07.051Z,1017.2
2019-03-26T00:34:19.886Z,1017.2
2019-03-26T00:35:22.429Z,1017.2
2019-03-26T00:36:24.439Z,1017.2
2019-03-26T00:37:27.568Z,1017.2
2019-03-26T00:38:31.965Z,1017.2
2019-03-26T00:39:34.300Z,1017.2
2019-03-26T00:40:36.309Z,1017.2
2019-03-26T00:41:42.431Z,1017.2
2019-03-26T00:42:44.583Z,1017.3
2019-03-26T00:43:46.666Z,1017.2
2019-03-26T00:44:48.713Z,1017.2
2019-03-26T00:45:51.147Z,1017.1
2019-03-26T00:46:53.623Z,1017.1
2019-03-26T00:47:56.244Z,1017.2
2019-03-26T00:48:58.845Z,1017.2
2019-03-26T00:50:00.851Z,1017.2
2019-03-26T00:51:03.254Z,1017.2
2019-03-26T00:52:05.274Z,1017.2
2019-03-26T00:53:07.277Z,1017.2
2019-03-26T00:54:09.386Z,1017.2
2019-03-26T00:55:23.178Z,1017.2
2019-03-26T00:56:25.558Z,1017.3
2019-03-26T00:57:27.562Z,1017.2
2019-03-26T00:58:30.294Z,1017.2
2019-03-26T00:59:32.315Z,1017.2
2019-03-26T01:00:34.417Z,1017.2
2019-03-26T01:01:36.453Z,1017.2
2019-03-26T01:02:38.458Z,1017.2
2019-03-26T01:03:40.580Z,1017.2
2019-03-26T01:04:43.597Z,1017.2
2019-03-26T01:05:48.724Z,1017.2
2019-03-26T01:06:58.378Z,1017.1
2019-03-26T01:08:03.658Z,1017.2
2019-03-26T01:09:05.762Z,1017.1
2019-03-26T01:10:07.775Z,1017.2
2019-03-26T01:11:10.081Z,1017.2
2019-03-26T01:12:12.093Z,1017.2
2019-03-26T01:13:14.100Z,1017.2
2019-03-26T01:14:16.498Z,1017.2
2019-03-26T01:15:18.499Z,1017.2
2019-03-26T01:16:20.954Z,1017.2
2019-03-26T01:17:23.902Z,1017.2
2019-03-26T01:18:26.270Z,1017.2
2019-03-26T01:19:28.957Z,1017.2
2019-03-26T01:20:31.188Z,1017.2
2019-03-26T01:21:33.220Z,1017.2
2019-03-26T01:22:35.353Z,1017.1
2019-03-26T01:23:38.422Z,1017.2
2019-03-26T01:24:40.431Z,1017.2
2019-03-26T01:25:42.499Z,1017.2
2019-03-26T01:26:44.561Z,1017.2
2019-03-26T01:27:46.560Z,1017.2
2019-03-26T01:28:48.845Z,1017.2
2019-03-26T01:29:50.845Z,1017.2
2019-03-26T01:30:53.019Z,1017.2
2019-03-26T01:31:55.338Z,1017.2
2019-03-26T01:32:57.522Z,1017.2
2019-03-26T01:33:59.954Z,1017.3
2019-03-26T01:35:01.986Z,1017.2
2019-03-26T01:36:04.286Z,1017.2
2019-03-26T01:37:06.607Z,1017.2
2019-03-26T01:38:08.617Z,1017.2
2019-03-26T01:39:10.616Z,1017.2
2019-03-26T01:40:12.901Z,1017.2
2019-03-26T01:41:15.357Z,1017.2
2019-03-26T01:42:18.580Z,1017.2
2019-03-26T01:43:21.199Z,1017.2
2019-03-26T01:44:23.218Z,1017.3
2019-03-26T01:45:25.538Z,1017.2
2019-03-26T01:46:27.565Z,1017.2
2019-03-26T01:47:29.602Z,1017.2
2019-03-26T01:48:31.656Z,1017.2
2019-03-26T01:49:33.672Z,1017.2
2019-03-26T01:50:35.716Z,1017.2
2019-03-26T01:51:37.725Z,1017.2
2019-03-26T01:52:39.729Z,1017.2
2019-03-26T01:53:41.754Z,1017.2
2019-03-26T01:54:43.881Z,1017.2
2019-03-26T01:55:45.900Z,1017.2
2019-03-26T01:56:47.916Z,1017.1
2019-03-26T01:57:49.930Z,1017.1
2019-03-26T01:58:51.934Z,1017.2
2019-03-26T01:59:54.227Z,1017.2
2019-03-26T02:00:56.618Z,1017.2
2019-03-26T02:01:58.618Z,1017.1
2019-03-26T02:03:02.673Z,1017.1
2019-03-26T02:04:11.679Z,1017.1
2019-03-26T02:05:21.866Z,1017.1
2019-03-26T02:06:26.264Z,1017.1
2019-03-26T02:07:28.269Z,1017.2
2019-03-26T02:08:30.626Z,1017.2
2019-03-26T02:09:33.629Z,1017.1
2019-03-26T02:10:36.963Z,1017.1
2019-03-26T02:11:38.963Z,1017.1
2019-03-26T02:12:40.960Z,1017.2
2019-03-26T02:13:43.649Z,1017.1
2019-03-26T02:14:46.095Z,1017.1
2019-03-26T02:15:48.237Z,1017.1
2019-03-26T02:16:50.693Z,1017.1
2019-03-26T02:17:52.848Z,1017.2
2019-03-26T02:18:55.392Z,1017.2
2019-03-26T02:19:58.530Z,1017.2
2019-03-26T02:21:00.935Z,1017.2
2019-03-26T02:22:02.935Z,1017.2
2019-03-26T02:23:05.327Z,1017.1
2019-03-26T02:24:07.488Z,1017.1
2019-03-26T02:25:09.877Z,1017.2
2019-03-26T02:26:11.883Z,1017.1
2019-03-26T02:27:13.997Z,1017.2
2019-03-26T02:28:16.391Z,1017.1
2019-03-26T02:29:18.526Z,1017.2
2019-03-26T02:30:20.537Z,1017.1
2019-03-26T02:31:23.252Z,1017.1
2019-03-26T02:32:25.426Z,1017.1
2019-03-26T02:33:30.749Z,1017.1
2019-03-26T02:34:38.388Z,1017.1
2019-03-26T02:35:48.104Z,1017
2019-03-26T02:36:55.619Z,1017
2019-03-26T02:38:01.258Z,1017.1
2019-03-26T02:39:03.578Z,1017.1
2019-03-26T02:40:06.248Z,1017.1
2019-03-26T02:41:08.544Z,1017.2
2019-03-26T02:42:10.668Z,1017.2
2019-03-26T02:43:12.958Z,1017.1
2019-03-26T02:44:15.263Z,1017.1
2019-03-26T02:45:17.299Z,1017.1
2019-03-26T02:46:19.898Z,1017
2019-03-26T02:47:22.584Z,1017
2019-03-26T02:48:24.875Z,1017
2019-03-26T02:49:27.179Z,1017
2019-03-26T02:50:29.601Z,1017
2019-03-26T02:51:32.201Z,1017
2019-03-26T02:52:35.052Z,1017
2019-03-26T02:53:37.345Z,1017
2019-03-26T02:54:40.216Z,1017
2019-03-26T02:55:42.241Z,1017
2019-03-26T02:56:44.251Z,1017
2019-03-26T02:57:46.919Z,1017
2019-03-26T02:58:48.971Z,1016.9
2019-03-26T02:59:51.547Z,1016.9
2019-03-26T03:00:53.553Z,1017
2019-03-26T03:01:55.848Z,1016.9
2019-03-26T03:02:58.159Z,1016.9
2019-03-26T03:04:00.189Z,1016.9
2019-03-26T03:05:02.480Z,1016.9
2019-03-26T03:06:05.084Z,1016.9
2019-03-26T03:07:08.062Z,1016.9
2019-03-26T03:08:10.122Z,1016.9
2019-03-26T03:09:12.243Z,1016.9
2019-03-26T03:10:14.883Z,1016.9
2019-03-26T03:11:17.336Z,1016.8
2019-03-26T03:12:19.990Z,1016.9
2019-03-26T03:13:22.751Z,1016.9
2019-03-26T03:14:25.317Z,1016.9
2019-03-26T03:15:27.446Z,1016.9
2019-03-26T03:16:29.740Z,1016.9
2019-03-26T03:17:31.862Z,1017
2019-03-26T03:18:34.457Z,1016.9
2019-03-26T03:19:36.864Z,1016.9
2019-03-26T03:20:38.871Z,1016.9
2019-03-26T03:21:41.358Z,1016.9
2019-03-26T03:22:43.371Z,1016.9
2019-03-26T03:23:46.092Z,1016.9
2019-03-26T03:24:48.116Z,1016.9
2019-03-26T03:25:50.121Z,1016.9
2019-03-26T03:26:52.530Z,1016.9
2019-03-26T03:27:54.942Z,1016.9
2019-03-26T03:28:56.974Z,1016.9
2019-03-26T03:29:59.679Z,1016.9
2019-03-26T03:31:03.052Z,1016.9
2019-03-26T03:32:05.568Z,1016.9
2019-03-26T03:33:07.627Z,1016.9
2019-03-26T03:34:10.292Z,1016.9
2019-03-26T03:35:12.377Z,1016.9
2019-03-26T03:36:14.744Z,1016.9
2019-03-26T03:37:16.754Z,1016.9
2019-03-26T03:38:19.056Z,1016.9
2019-03-26T03:39:21.343Z,1017
2019-03-26T03:40:23.739Z,1016.9
2019-03-26T03:41:25.749Z,1016.9
2019-03-26T03:42:28.044Z,1016.9
2019-03-26T03:43:30.138Z,1016.9
2019-03-26T03:44:32.823Z,1016.9
2019-03-26T03:45:34.831Z,1016.9
2019-03-26T03:46:37.524Z,1017
2019-03-26T03:47:39.608Z,1016.9
2019-03-26T03:48:42.006Z,1016.9
2019-03-26T03:49:44.331Z,1017
2019-03-26T03:50:46.338Z,1016.9
2019-03-26T03:51:48.385Z,1016.9
2019-03-26T03:52:50.387Z,1017
2019-03-26T03:53:52.949Z,1016.9
2019-03-26T03:54:54.962Z,1016.9
2019-03-26T03:55:57.244Z,1017
2019-03-26T03:56:59.248Z,1017
2019-03-26T03:58:02.650Z,1016.9
2019-03-26T03:59:05.756Z,1016.9
2019-03-26T04:00:08.048Z,1016.9
2019-03-26T04:01:10.167Z,1016.9
2019-03-26T04:02:12.577Z,1016.9
2019-03-26T04:03:15.010Z,1016.9
2019-03-26T04:04:17.330Z,1016.9
2019-03-26T04:05:19.736Z,1016.8
2019-03-26T04:06:21.813Z,1016.8
2019-03-26T04:07:24.101Z,1016.8
2019-03-26T04:08:26.102Z,1016.8
2019-03-26T04:09:28.505Z,1016.8
2019-03-26T04:10:30.550Z,1016.8
2019-03-26T04:11:33.404Z,1016.8
2019-03-26T04:12:35.704Z,1016.8
2019-03-26T04:13:38.110Z,1016.8
2019-03-26T04:14:40.399Z,1016.7
2019-03-26T04:15:42.696Z,1016.8
2019-03-26T04:16:45.383Z,1016.7
2019-03-26T04:17:48.055Z,1016.7
2019-03-26T04:18:50.071Z,1016.7
2019-03-26T04:19:52.404Z,1016.7
2019-03-26T04:20:54.430Z,1016.7
2019-03-26T04:21:56.715Z,1016.8
2019-03-26T04:22:59.032Z,1016.7
2019-03-26T04:24:01.330Z,1016.7
2019-03-26T04:25:03.666Z,1016.8
2019-03-26T04:26:05.962Z,1016.8
2019-03-26T04:27:08.261Z,1016.8
2019-03-26T04:28:10.659Z,1016.8
2019-03-26T04:29:13.044Z,1016.9
2019-03-26T04:30:15.053Z,1016.9
2019-03-26T04:31:17.081Z,1016.8
2019-03-26T04:32:19.385Z,1016.8
2019-03-26T04:33:21.441Z,1016.8
2019-03-26T04:34:23.891Z,1016.8
2019-03-26T04:35:25.958Z,1016.8
2019-03-26T04:36:28.393Z,1016.8
2019-03-26T04:37:30.424Z,1016.8
2019-03-26T04:38:32.462Z,1016.8
2019-03-26T04:39:35.187Z,1016.8
2019-03-26T04:40:37.226Z,1016.9
2019-03-26T04:41:39.542Z,1016.9
2019-03-26T04:42:42.172Z,1016.8
2019-03-26T04:43:44.230Z,1016.9
2019-03-26T04:44:46.268Z,1017
2019-03-26T04:45:48.300Z,1016.9
2019-03-26T04:46:50.711Z,1016.9
2019-03-26T04:47:52.737Z,1016.9
2019-03-26T04:48:54.851Z,1016.9
2019-03-26T04:49:57.256Z,1016.9
2019-03-26T04:50:59.293Z,1016.9
2019-03-26T04:52:01.316Z,1016.8
2019-03-26T04:53:03.629Z,1016.8
2019-03-26T04:54:06.437Z,1016.9
2019-03-26T04:55:08.464Z,1016.8
2019-03-26T04:56:10.870Z,1016.8
2019-03-26T04:57:12.907Z,1016.9
2019-03-26T04:58:14.999Z,1016.8
2019-03-26T04:59:17.026Z,1016.8
2019-03-26T05:00:19.060Z,1016.9
2019-03-26T05:01:21.375Z,1016.8
2019-03-26T05:02:23.407Z,1016.8
2019-03-26T05:03:25.458Z,1016.8
2019-03-26T05:04:27.493Z,1016.7
2019-03-26T05:05:29.529Z,1016.7
2019-03-26T05:06:38.575Z,1016.7
2019-03-26T05:07:40.922Z,1016.7
2019-03-26T05:08:42.941Z,1016.8
2019-03-26T05:09:44.971Z,1016.8
2019-03-26T05:10:49.595Z,1016.8
2019-03-26T05:11:52.283Z,1016.8
2019-03-26T05:12:54.394Z,1016.7
2019-03-26T05:13:56.500Z,1016.8
2019-03-26T05:14:58.906Z,1016.7
2019-03-26T05:16:00.931Z,1016.8
2019-03-26T05:17:02.966Z,1016.7
2019-03-26T05:18:05.013Z,1016.7
2019-03-26T05:19:07.044Z,1016.7
2019-03-26T05:20:09.472Z,1016.6
2019-03-26T05:21:11.485Z,1016.7
2019-03-26T05:22:24.639Z,1016.7
2019-03-26T05:23:26.708Z,1016.7
2019-03-26T05:24:28.819Z,1016.7
2019-03-26T05:25:30.851Z,1016.8
2019-03-26T05:26:32.904Z,1016.8
2019-03-26T05:27:45.925Z,1016.8
2019-03-26T05:28:48.402Z,1016.8
2019-03-26T05:29:50.439Z,1016.8
2019-03-26T05:30:52.462Z,1016.8
2019-03-26T05:31:54.536Z,1016.8
2019-03-26T05:32:56.599Z,1016.9
2019-03-26T05:33:58.628Z,1016.8
2019-03-26T05:35:00.954Z,1016.8
2019-03-26T05:36:03.562Z,1016.7
2019-03-26T05:37:05.584Z,1016.8
2019-03-26T05:38:07.903Z,1016.7
2019-03-26T05:39:09.952Z,1016.7
2019-03-26T05:40:11.968Z,1016.8
2019-03-26T05:41:13.999Z,1016.7
2019-03-26T05:42:16.039Z,1016.7
2019-03-26T05:43:18.066Z,1016.7
2019-03-26T05:44:20.098Z,1016.8
2019-03-26T05:45:22.134Z,1016.8
2019-03-26T05:46:24.157Z,1016.8
2019-03-26T05:47:26.184Z,1016.7
2019-03-26T05:48:28.497Z,1016.8
2019-03-26T05:49:30.820Z,1016.8
2019-03-26T05:50:32.843Z,1016.7
2019-03-26T05:51:34.891Z,1016.7
2019-03-26T05:52:36.922Z,1016.7
2019-03-26T05:53:38.948Z,1016.8
2019-03-26T05:54:40.989Z,1016.8
2019-03-26T05:55:43.005Z,1016.8
2019-03-26T05:56:45.034Z,1016.9
2019-03-26T05:57:47.060Z,1016.9
2019-03-26T05:58:49.396Z,1016.9
2019-03-26T05:59:51.424Z,1017
2019-03-26T06:00:53.456Z,1016.9
2019-03-26T06:01:55.780Z,1017
2019-03-26T06:02:57.899Z,1017
2019-03-26T06:03:59.972Z,1017
2019-03-26T06:05:02.320Z,1017
2019-03-26T06:06:04.350Z,1016.9
2019-03-26T06:07:06.660Z,1017
2019-03-26T06:08:09.102Z,1017
2019-03-26T06:09:11.141Z,1017
2019-03-26T06:10:13.228Z,1017
2019-03-26T06:11:15.563Z,1016.9
2019-03-26T06:12:17.879Z,1017
2019-03-26T06:13:20.175Z,1016.9
2019-03-26T06:14:22.224Z,1016.9
2019-03-26T06:15:24.268Z,1016.9
2019-03-26T06:16:38.883Z,1016.8
2019-03-26T06:17:41.239Z,1016.8
2019-03-26T06:18:43.293Z,1016.8
2019-03-26T06:19:45.699Z,1016.7
2019-03-26T06:20:47.726Z,1016.7
2019-03-26T06:21:50.152Z,1016.7
2019-03-26T06:22:52.203Z,1016.8
2019-03-26T06:23:54.531Z,1016.8
2019-03-26T06:24:56.651Z,1016.8
2019-03-26T06:25:58.694Z,1016.7
2019-03-26T06:27:00.747Z,1016.7
2019-03-26T06:28:02.812Z,1016.7
2019-03-26T06:29:05.128Z,1016.8
2019-03-26T06:30:07.166Z,1016.8
2019-03-26T06:31:09.588Z,1016.8
2019-03-26T06:32:11.904Z,1016.7
2019-03-26T06:33:13.921Z,1016.7
2019-03-26T06:34:15.956Z,1016.7
2019-03-26T06:35:17.988Z,1016.7
2019-03-26T06:36:20.015Z,1016.7
2019-03-26T06:37:22.054Z,1016.7
2019-03-26T06:38:24.079Z,1016.7
2019-03-26T06:39:26.111Z,1016.7
2019-03-26T06:40:28.527Z,1016.7
2019-03-26T06:41:30.563Z,1016.7
2019-03-26T06:42:32.586Z,1016.7
2019-03-26T06:43:34.625Z,1016.7
2019-03-26T06:44:36.660Z,1016.6
2019-03-26T06:45:39.044Z,1016.6
2019-03-26T06:46:41.378Z,1016.6
2019-03-26T06:47:43.409Z,1016.6
2019-03-26T06:48:45.431Z,1016.6
2019-03-26T06:49:47.457Z,1016.6
2019-03-26T06:50:49.786Z,1016.6
2019-03-26T06:51:52.103Z,1016.6
2019-03-26T06:52:54.425Z,1016.7
2019-03-26T06:53:56.455Z,1016.6
2019-03-26T06:54:58.487Z,1016.6
2019-03-26T06:56:00.528Z,1016.5
2019-03-26T06:57:02.569Z,1016.5
2019-03-26T06:58:04.900Z,1016.5
2019-03-26T06:59:07.505Z,1016.5
2019-03-26T07:00:09.554Z,1016.6
2019-03-26T07:01:11.980Z,1016.5
2019-03-26T07:02:14.321Z,1016.5
2019-03-26T07:03:16.635Z,1016.5
2019-03-26T07:04:18.664Z,1016.5
2019-03-26T07:05:20.687Z,1016.5
2019-03-26T07:06:22.741Z,1016.4
2019-03-26T07:07:32.169Z,1016.4
2019-03-26T07:08:34.232Z,1016.4
2019-03-26T07:09:36.281Z,1016.4
2019-03-26T07:10:38.315Z,1016.5
2019-03-26T07:11:40.351Z,1016.5
2019-03-26T07:12:42.422Z,1016.5
2019-03-26T07:13:44.453Z,1016.5
2019-03-26T07:14:46.473Z,1016.5
2019-03-26T07:15:48.518Z,1016.6
2019-03-26T07:16:50.551Z,1016.6
2019-03-26T07:17:53.123Z,1016.5
2019-03-26T07:18:55.168Z,1016.4
2019-03-26T07:19:57.478Z,1016.5
2019-03-26T07:20:59.512Z,1016.5
2019-03-26T07:22:01.556Z,1016.5
2019-03-26T07:23:03.583Z,1016.5
2019-03-26T07:24:05.624Z,1016.6
2019-03-26T07:25:07.684Z,1016.5
2019-03-26T07:26:09.784Z,1016.5
2019-03-26T07:27:11.846Z,1016.3
2019-03-26T07:28:13.884Z,1016.4
2019-03-26T07:29:16.206Z,1016.4
2019-03-26T07:30:18.247Z,1016.5
2019-03-26T07:31:20.282Z,1016.5
2019-03-26T07:32:22.605Z,1016.4
2019-03-26T07:33:24.647Z,1016.4
2019-03-26T07:34:26.665Z,1016.3
2019-03-26T07:35:29.015Z,1016.4
2019-03-26T07:36:31.692Z,1016.5
2019-03-26T07:37:45.867Z,1016.5
2019-03-26T07:38:47.982Z,1016.5
2019-03-26T07:39:50.025Z,1016.5
2019-03-26T07:40:52.054Z,1016.5
2019-03-26T07:41:54.102Z,1016.5
2019-03-26T07:42:56.156Z,1016.5
2019-03-26T07:43:58.271Z,1016.5
2019-03-26T07:45:00.726Z,1016.5
2019-03-26T07:46:02.789Z,1016.5
2019-03-26T07:47:04.824Z,1016.5
2019-03-26T07:48:06.847Z,1016.5
2019-03-26T07:49:08.899Z,1016.5
2019-03-26T07:50:14.243Z,1016.4
2019-03-26T07:51:16.270Z,1016.5
2019-03-26T07:52:18.322Z,1016.5
2019-03-26T07:53:20.803Z,1016.4
2019-03-26T07:54:22.845Z,1016.4
2019-03-26T07:55:24.878Z,1016.5
2019-03-26T07:56:27.194Z,1016.5
2019-03-26T07:57:29.224Z,1016.4
2019-03-26T07:58:33.531Z,1016.3
2019-03-26T07:59:35.563Z,1016.4
2019-03-26T08:00:37.921Z,1016.3
2019-03-26T08:01:39.966Z,1016.3
2019-03-26T08:02:41.996Z,1016.3
2019-03-26T08:03:44.030Z,1016.2
2019-03-26T08:04:46.052Z,1016.2
2019-03-26T08:05:48.398Z,1016.3
2019-03-26T08:06:50.434Z,1016.3
2019-03-26T08:07:58.922Z,1016.3
2019-03-26T08:09:01.307Z,1016.3
2019-03-26T08:10:03.347Z,1016.2
2019-03-26T08:11:05.379Z,1016.2
2019-03-26T08:12:07.408Z,1016.2
2019-03-26T08:13:09.517Z,1016.2
2019-03-26T08:14:12.276Z,1016.2
2019-03-26T08:15:14.457Z,1016.2
2019-03-26T08:16:16.840Z,1016.2
2019-03-26T08:17:18.909Z,1016.2
2019-03-26T08:18:21.028Z,1016.1
2019-03-26T08:19:23.447Z,1016.1
2019-03-26T08:20:25.487Z,1016.1
2019-03-26T08:21:27.796Z,1016.2
2019-03-26T08:22:29.836Z,1016.2
2019-03-26T08:23:31.864Z,1016.1
2019-03-26T08:24:34.174Z,1016.2
2019-03-26T08:25:36.791Z,1016.2
2019-03-26T08:26:38.815Z,1016.1
2019-03-26T08:27:40.857Z,1016.2
2019-03-26T08:28:43.284Z,1016.1
2019-03-26T08:29:45.328Z,1016.1
2019-03-26T08:30:50.464Z,1016.2
2019-03-26T08:31:52.523Z,1016.1
2019-03-26T08:32:54.544Z,1016.3
2019-03-26T08:33:56.577Z,1016.1
2019-03-26T08:34:58.904Z,1016.1
2019-03-26T08:36:00.938Z,1016.1
2019-03-26T08:37:03.370Z,1016.1
2019-03-26T08:38:13.520Z,1016.1
2019-03-26T08:39:15.907Z,1016.2
2019-03-26T08:40:18.031Z,1016.2
2019-03-26T08:41:20.066Z,1016.2
2019-03-26T08:42:22.117Z,1016.2
2019-03-26T08:43:24.149Z,1016.2
2019-03-26T08:44:26.191Z,1016.3
2019-03-26T08:45:28.218Z,1016.2
2019-03-26T08:46:30.330Z,1016.3
2019-03-26T08:47:32.361Z,1016.3
2019-03-26T08:48:34.406Z,1016.3
2019-03-26T08:49:36.465Z,1016.3
2019-03-26T08:50:38.485Z,1016.2
2019-03-26T08:51:40.573Z,1016.3
2019-03-26T08:52:42.614Z,1016.2
2019-03-26T08:53:44.650Z,1016.2
2019-03-26T08:54:46.674Z,1016.3
2019-03-26T08:55:49.009Z,1016.2
2019-03-26T08:56:51.093Z,1016.2
2019-03-26T08:57:53.125Z,1016.3
2019-03-26T08:58:55.183Z,1016.3
2019-03-26T08:59:57.218Z,1016.3
2019-03-26T09:00:59.247Z,1016.3
2019-03-26T09:02:01.294Z,1016.2
2019-03-26T09:03:03.632Z,1016.2
2019-03-26T09:04:05.696Z,1016.3
2019-03-26T09:05:08.028Z,1016.2
2019-03-26T09:06:10.071Z,1016.2
2019-03-26T09:07:12.108Z,1016.2
2019-03-26T09:08:25.913Z,1016.2
2019-03-26T09:09:28.299Z,1016.2
2019-03-26T09:10:30.614Z,1016.2
2019-03-26T09:11:32.955Z,1016.2
2019-03-26T09:12:34.988Z,1016.3
2019-03-26T09:13:37.017Z,1016.2
2019-03-26T09:14:39.067Z,1016.2
2019-03-26T09:15:41.091Z,1016.2
2019-03-26T09:16:43.151Z,1016.2
2019-03-26T09:17:45.220Z,1016.2
2019-03-26T09:18:47.275Z,1016.2
2019-03-26T09:19:49.307Z,1016.2
2019-03-26T09:20:51.346Z,1016.2
2019-03-26T09:21:53.382Z,1016.3
2019-03-26T09:22:55.417Z,1016.2
2019-03-26T09:23:57.472Z,1016.2
2019-03-26T09:24:59.506Z,1016.2
2019-03-26T09:26:02.071Z,1016.2
2019-03-26T09:27:04.166Z,1016.3
2019-03-26T09:28:06.225Z,1016.2
2019-03-26T09:29:08.258Z,1016.3
2019-03-26T09:30:10.337Z,1016.3
2019-03-26T09:31:12.768Z,1016.3
2019-03-26T09:32:14.793Z,1016.3
2019-03-26T09:33:17.124Z,1016.3
2019-03-26T09:34:19.232Z,1016.2
2019-03-26T09:35:21.315Z,1016.1
2019-03-26T09:36:23.361Z,1016.1
2019-03-26T09:37:25.703Z,1016.2
2019-03-26T09:38:39.548Z,1016.1
2019-03-26T09:39:41.636Z,1016.2
2019-03-26T09:40:43.681Z,1016.2
2019-03-26T09:41:46.009Z,1016.2
2019-03-26T09:42:48.065Z,1016.2
2019-03-26T09:43:50.500Z,1016.1
2019-03-26T09:44:52.532Z,1016.1
2019-03-26T09:45:58.379Z,1016.1
2019-03-26T09:47:00.710Z,1016.1
2019-03-26T09:48:17.872Z,1016.1
2019-03-26T09:49:19.925Z,1016.1
2019-03-26T09:50:21.956Z,1016.2
2019-03-26T09:51:23.989Z,1016.1
2019-03-26T09:52:26.039Z,1016.1
2019-03-26T09:53:28.088Z,1016.2
2019-03-26T09:54:30.124Z,1016.2
2019-03-26T09:55:32.158Z,1016.1
2019-03-26T09:56:34.213Z,1016.1
2019-03-26T09:57:36.261Z,1016.1
2019-03-26T09:58:38.586Z,1016
2019-03-26T09:59:40.625Z,1016
2019-03-26T10:00:42.822Z,1016
2019-03-26T10:01:45.804Z,1016
2019-03-26T10:02:48.117Z,1016
2019-03-26T10:03:50.167Z,1016
2019-03-26T10:04:52.206Z,1016.1
2019-03-26T10:05:54.244Z,1015.9
2019-03-26T10:06:56.291Z,1016
2019-03-26T10:07:58.321Z,1016.1
2019-03-26T10:09:00.352Z,1016
2019-03-26T10:10:02.394Z,1016
2019-03-26T10:11:04.454Z,1016
2019-03-26T10:12:06.487Z,1016
2019-03-26T10:13:08.564Z,1016
2019-03-26T10:14:10.955Z,1016.1
2019-03-26T10:15:12.996Z,1016.1
2019-03-26T10:16:15.123Z,1016.1
2019-03-26T10:17:17.160Z,1016.2
2019-03-26T10:18:19.815Z,1016.3
2019-03-26T10:19:25.617Z,1016.3
2019-03-26T10:20:27.678Z,1016.4
2019-03-26T10:21:30.266Z,1016.5
2019-03-26T10:22:32.322Z,1016.6
2019-03-26T10:23:34.353Z,1016.6
2019-03-26T10:24:36.406Z,1016.6
2019-03-26T10:25:38.603Z,1016.5
2019-03-26T10:26:40.654Z,1016.5
2019-03-26T10:27:42.748Z,1016.5
2019-03-26T10:28:44.802Z,1016.5
2019-03-26T10:29:47.148Z,1016.4
2019-03-26T10:30:49.236Z,1016.3
2019-03-26T10:31:51.284Z,1016.3
2019-03-26T10:32:53.327Z,1016.3
2019-03-26T10:33:55.373Z,1016.3
2019-03-26T10:34:57.723Z,1016.3
2019-03-26T10:36:00.130Z,1016.3
2019-03-26T10:37:02.556Z,1016.3
2019-03-26T10:38:04.637Z,1016.1
2019-03-26T10:39:06.680Z,1016.2
2019-03-26T10:40:08.738Z,1016.1
2019-03-26T10:41:11.168Z,1016.2
2019-03-26T10:42:13.317Z,1016.2
2019-03-26T10:43:15.396Z,1016.2
2019-03-26T10:44:17.472Z,1016.2
2019-03-26T10:45:19.523Z,1016.2
2019-03-26T10:46:22.348Z,1016.1
2019-03-26T10:47:25.546Z,1016.2
2019-03-26T10:48:27.576Z,1016.1
2019-03-26T10:49:33.420Z,1016
2019-03-26T10:50:35.799Z,1016.1
2019-03-26T10:51:37.836Z,1016.1
2019-03-26T10:52:39.876Z,1016.2
2019-03-26T10:53:41.935Z,1016.2
2019-03-26T10:54:44.246Z,1016.2
2019-03-26T10:55:46.328Z,1016.2
2019-03-26T10:56:48.464Z,1016.2
2019-03-26T10:57:50.901Z,1016.1
2019-03-26T10:58:53.039Z,1016.2
2019-03-26T10:59:55.094Z,1016.1
2019-03-26T11:00:57.125Z,1016.1
2019-03-26T11:02:00.595Z,1016.2
2019-03-26T11:03:03.398Z,1016.1
2019-03-26T11:04:07.999Z,1016
2019-03-26T11:05:10.106Z,1016.1
2019-03-26T11:06:12.137Z,1016.1
2019-03-26T11:07:14.210Z,1016
2019-03-26T11:08:16.253Z,1016
2019-03-26T11:09:27.153Z,1016
2019-03-26T11:10:29.682Z,1016
2019-03-26T11:11:31.708Z,1016
2019-03-26T11:12:33.761Z,1016
2019-03-26T11:13:35.791Z,1015.9
2019-03-26T11:14:37.873Z,1016.1
2019-03-26T11:15:40.180Z,1016.2
2019-03-26T11:16:42.911Z,1016
2019-03-26T11:17:44.953Z,1016.1
2019-03-26T11:18:47.282Z,1016.1
2019-03-26T11:19:49.333Z,1016.1
2019-03-26T11:21:03.136Z,1016.1
2019-03-26T11:22:05.617Z,1016
2019-03-26T11:23:07.659Z,1016.1
2019-03-26T11:24:09.703Z,1015.9
2019-03-26T11:25:12.571Z,1016
2019-03-26T11:26:15.013Z,1015.9
2019-03-26T11:27:17.053Z,1015.9
2019-03-26T11:28:19.763Z,1015.9
2019-03-26T11:29:22.097Z,1016
2019-03-26T11:30:24.513Z,1015.7
2019-03-26T11:31:26.572Z,1015.9
2019-03-26T11:32:32.147Z,1016
2019-03-26T11:33:34.194Z,1016
2019-03-26T11:34:36.507Z,1016
2019-03-26T11:35:38.933Z,1016
2019-03-26T11:36:40.990Z,1016
2019-03-26T11:37:43.023Z,1016.1
2019-03-26T11:38:45.127Z,1016.1
2019-03-26T11:39:47.224Z,1016.1
2019-03-26T11:40:49.551Z,1016.2
2019-03-26T11:41:51.587Z,1016.2
2019-03-26T11:42:53.637Z,1016.1
2019-03-26T11:43:55.668Z,1016.2
2019-03-26T11:44:59.702Z,1016.3
2019-03-26T11:46:01.936Z,1016.3
2019-03-26T11:47:03.983Z,1016.3
2019-03-26T11:48:06.021Z,1016.3
2019-03-26T11:49:08.061Z,1016.3
2019-03-26T11:50:10.497Z,1016.2
2019-03-26T11:51:12.813Z,1016.4
2019-03-26T11:52:14.860Z,1016.2
2019-03-26T11:53:16.887Z,1016.2
2019-03-26T11:54:18.924Z,1016.3
2019-03-26T11:55:22.236Z,1016.3
2019-03-26T11:56:24.602Z,1016.2
2019-03-26T11:57:26.913Z,1016.3
2019-03-26T11:58:31.246Z,1016.3
2019-03-26T11:59:33.638Z,1016.3
2019-03-26T12:00:36.054Z,1016.2
2019-03-26T12:01:38.400Z,1016.3
2019-03-26T12:02:40.420Z,1016.3
2019-03-26T12:03:42.953Z,1016.3
2019-03-26T12:04:44.987Z,1016.3
2019-03-26T12:05:47.039Z,1016.4
2019-03-26T12:06:49.079Z,1016.3
2019-03-26T12:07:51.118Z,1016.3
2019-03-26T12:08:53.161Z,1016.3
2019-03-26T12:09:55.279Z,1016.3
2019-03-26T12:10:57.349Z,1016.2
2019-03-26T12:11:59.382Z,1016.3
2019-03-26T12:13:01.428Z,1016.2
2019-03-26T12:14:03.479Z,1016.2
2019-03-26T12:15:05.526Z,1016.1
2019-03-26T12:16:07.562Z,1016.2
2019-03-26T12:17:09.881Z,1016.1
2019-03-26T12:18:11.918Z,1016.1
2019-03-26T12:19:13.952Z,1016.1
2019-03-26T12:20:16.291Z,1016.2
2019-03-26T12:21:18.371Z,1016.2
2019-03-26T12:22:20.413Z,1016.2
2019-03-26T12:23:22.456Z,1016.2
2019-03-26T12:24:24.502Z,1016.1
2019-03-26T12:25:26.607Z,1016.1
2019-03-26T12:26:28.666Z,1016.2
2019-03-26T12:27:30.716Z,1016.1
2019-03-26T12:28:33.134Z,1016.2
2019-03-26T12:29:35.176Z,1016.2
2019-03-26T12:30:37.894Z,1016.3
2019-03-26T12:31:39.952Z,1016.2
2019-03-26T12:32:42.266Z,1016.2
2019-03-26T12:33:44.308Z,1016.1
2019-03-26T12:34:46.741Z,1016.2
2019-03-26T12:35:49.060Z,1016.1
2019-03-26T12:36:51.102Z,1016.2
2019-03-26T12:37:53.148Z,1016.3
2019-03-26T12:38:55.194Z,1016.3
2019-03-26T12:40:00.837Z,1016.3
2019-03-26T12:41:03.185Z,1016.3
2019-03-26T12:42:05.264Z,1016.4
2019-03-26T12:43:07.295Z,1016.4
2019-03-26T12:44:09.635Z,1016.4
2019-03-26T12:45:11.679Z,1016.3
2019-03-26T12:46:14.011Z,1016.4
2019-03-26T12:47:16.339Z,1016.4
2019-03-26T12:48:18.774Z,1016.4
2019-03-26T12:49:20.812Z,1016.5
2019-03-26T12:50:22.855Z,1016.4
2019-03-26T12:51:24.896Z,1016.4
2019-03-26T12:52:27.283Z,1016.4
2019-03-26T12:53:29.333Z,1016.5
2019-03-26T12:54:31.458Z,1016.5
2019-03-26T12:55:33.487Z,1016.5
2019-03-26T12:56:35.809Z,1016.5
2019-03-26T12:57:38.137Z,1016.4
2019-03-26T12:58:40.171Z,1016.4
2019-03-26T12:59:42.505Z,1016.4
2019-03-26T13:00:44.551Z,1016.3
2019-03-26T13:01:46.660Z,1016.3
2019-03-26T13:02:48.777Z,1016.3
2019-03-26T13:03:50.839Z,1016.3
2019-03-26T13:04:52.879Z,1016.3